sensor_id;sensor_type;location;lat;lon;timestamp;temperature;humidity
33139;DHT22;19501;50.948;5.316;2022-08-21T00:00:11;16.30;99.90
33139;DHT22;19501;50.948;5.316;2022-08-21T00:02:43;16.40;99.90
33139;DHT22;19501;50.948;5.316;2022-08-21T00:05:09;16.50;99.90
33139;DHT22;19501;50.948;5.316;2022-08-21T00:07:35;16.50;99.90
33139;DHT22;19501;50.948;5.316;2022-08-21T00:10:01;16.40;99.90
33139;DHT22;19501;50.948;5.316;2022-08-21T00:12:26;16.40;99.90
33139;DHT22;19501;50.948;5.316;2022-08-21T00:14:53;16.30;99.90
33139;DHT22;19501;50.948;5.316;2022-08-21T00:17:19;16.10;99.90
33139;DHT22;19501;50.948;5.316;2022-08-21T00:19:44;16.10;99.90
33139;DHT22;19501;50.948;5.316;2022-08-21T00:22:12;16.00;99.90
33139;DHT22;19501;50.948;5.316;2022-08-21T00:24:38;15.90;99.90
33139;DHT22;19501;50.948;5.316;2022-08-21T00:27:04;16.00;99.90
33139;DHT22;19501;50.948;5.316;2022-08-21T00:29:29;15.80;99.90
33139;DHT22;19501;50.948;5.316;2022-08-21T00:31:55;15.80;99.90
33139;DHT22;19501;50.948;5.316;2022-08-21T00:34:21;15.80;99.90
33139;DHT22;19501;50.948;5.316;2022-08-21T00:36:46;15.70;99.90
33139;DHT22;19501;50.948;5.316;2022-08-21T00:39:12;15.70;99.90
33139;DHT22;19501;50.948;5.316;2022-08-21T00:41:38;15.40;99.90
33139;DHT22;19501;50.948;5.316;2022-08-21T00:44:06;15.60;99.90
33139;DHT22;19501;50.948;5.316;2022-08-21T00:46:32;15.50;99.90
33139;DHT22;19501;50.948;5.316;2022-08-21T00:48:58;15.50;99.90
33139;DHT22;19501;50.948;5.316;2022-08-21T00:51:49;15.60;99.90
33139;DHT22;19501;50.948;5.316;2022-08-21T00:54:13;15.70;99.90
33139;DHT22;19501;50.948;5.316;2022-08-21T00:56:39;15.70;99.90
33139;DHT22;19501;50.948;5.316;2022-08-21T00:59:05;15.70;99.90
33139;DHT22;19501;50.948;5.316;2022-08-21T01:01:31;15.70;99.90
33139;DHT22;19501;50.948;5.316;2022-08-21T01:03:57;15.70;99.90
33139;DHT22;19501;50.948;5.316;2022-08-21T01:06:24;15.70;99.90
33139;DHT22;19501;50.948;5.316;2022-08-21T01:08:49;15.60;99.90
33139;DHT22;19501;50.948;5.316;2022-08-21T01:11:16;15.50;99.90
33139;DHT22;19501;50.948;5.316;2022-08-21T01:13:43;15.40;99.90
33139;DHT22;19501;50.948;5.316;2022-08-21T01:16:14;15.40;99.90
33139;DHT22;19501;50.948;5.316;2022-08-21T01:18:41;15.40;99.90
33139;DHT22;19501;50.948;5.316;2022-08-21T01:21:11;15.20;99.90
33139;DHT22;19501;50.948;5.316;2022-08-21T01:23:39;15.10;99.90
33139;DHT22;19501;50.948;5.316;2022-08-21T01:26:06;15.20;99.90
33139;DHT22;19501;50.948;5.316;2022-08-21T01:28:36;15.20;99.90
33139;DHT22;19501;50.948;5.316;2022-08-21T01:31:06;15.40;99.90
33139;DHT22;19501;50.948;5.316;2022-08-21T01:33:33;15.50;99.90
33139;DHT22;19501;50.948;5.316;2022-08-21T01:35:58;15.40;99.90
33139;DHT22;19501;50.948;5.316;2022-08-21T01:38:25;15.40;99.90
33139;DHT22;19501;50.948;5.316;2022-08-21T01:40:50;15.40;99.90
33139;DHT22;19501;50.948;5.316;2022-08-21T01:43:16;15.30;99.90
33139;DHT22;19501;50.948;5.316;2022-08-21T01:45:42;15.20;99.90
33139;DHT22;19501;50.948;5.316;2022-08-21T01:48:08;15.20;99.90
33139;DHT22;19501;50.948;5.316;2022-08-21T01:50:33;15.30;99.90
33139;DHT22;19501;50.948;5.316;2022-08-21T01:52:59;15.20;99.90
33139;DHT22;19501;50.948;5.316;2022-08-21T01:55:25;15.10;99.90
33139;DHT22;19501;50.948;5.316;2022-08-21T01:57:51;14.90;99.90
33139;DHT22;19501;50.948;5.316;2022-08-21T02:00:20;14.60;99.90
33139;DHT22;19501;50.948;5.316;2022-08-21T02:02:48;14.40;99.90
33139;DHT22;19501;50.948;5.316;2022-08-21T02:05:14;14.30;99.90
33139;DHT22;19501;50.948;5.316;2022-08-21T02:07:44;14.40;99.90
33139;DHT22;19501;50.948;5.316;2022-08-21T02:10:12;14.40;99.90
33139;DHT22;19501;50.948;5.316;2022-08-21T02:12:38;14.40;99.90
33139;DHT22;19501;50.948;5.316;2022-08-21T02:15:06;14.20;99.90
33139;DHT22;19501;50.948;5.316;2022-08-21T02:17:44;14.30;99.90
33139;DHT22;19501;50.948;5.316;2022-08-21T02:20:11;14.40;99.90
33139;DHT22;19501;50.948;5.316;2022-08-21T02:22:40;14.40;99.90
33139;DHT22;19501;50.948;5.316;2022-08-21T02:25:06;14.50;99.90
33139;DHT22;19501;50.948;5.316;2022-08-21T02:27:41;14.50;99.90
33139;DHT22;19501;50.948;5.316;2022-08-21T02:33:05;14.60;99.90
33139;DHT22;19501;50.948;5.316;2022-08-21T02:35:31;14.60;99.90
33139;DHT22;19501;50.948;5.316;2022-08-21T02:38:00;14.60;99.90
33139;DHT22;19501;50.948;5.316;2022-08-21T02:40:28;14.50;99.90
33139;DHT22;19501;50.948;5.316;2022-08-21T02:42:56;14.30;99.90
33139;DHT22;19501;50.948;5.316;2022-08-21T02:45:22;14.20;99.90
33139;DHT22;19501;50.948;5.316;2022-08-21T02:47:54;14.20;99.90
33139;DHT22;19501;50.948;5.316;2022-08-21T02:50:24;14.30;99.90
33139;DHT22;19501;50.948;5.316;2022-08-21T02:52:50;14.40;99.90
33139;DHT22;19501;50.948;5.316;2022-08-21T02:55:18;14.50;99.90
33139;DHT22;19501;50.948;5.316;2022-08-21T02:57:44;14.60;99.90
33139;DHT22;19501;50.948;5.316;2022-08-21T03:00:11;14.50;99.90
33139;DHT22;19501;50.948;5.316;2022-08-21T03:02:40;14.50;99.90
33139;DHT22;19501;50.948;5.316;2022-08-21T03:05:09;14.30;99.90
33139;DHT22;19501;50.948;5.316;2022-08-21T03:07:36;14.00;99.90
33139;DHT22;19501;50.948;5.316;2022-08-21T03:10:04;13.90;99.90
33139;DHT22;19501;50.948;5.316;2022-08-21T03:12:30;14.10;99.90
33139;DHT22;19501;50.948;5.316;2022-08-21T03:14:56;14.10;99.90
33139;DHT22;19501;50.948;5.316;2022-08-21T03:17:22;14.10;99.90
33139;DHT22;19501;50.948;5.316;2022-08-21T03:19:48;14.20;99.90
33139;DHT22;19501;50.948;5.316;2022-08-21T03:22:13;14.00;99.90
33139;DHT22;19501;50.948;5.316;2022-08-21T03:24:39;13.80;99.90
33139;DHT22;19501;50.948;5.316;2022-08-21T03:27:05;13.70;99.90
33139;DHT22;19501;50.948;5.316;2022-08-21T03:29:31;13.80;99.90
33139;DHT22;19501;50.948;5.316;2022-08-21T03:31:56;13.80;99.90
33139;DHT22;19501;50.948;5.316;2022-08-21T03:34:22;13.80;99.90
33139;DHT22;19501;50.948;5.316;2022-08-21T03:36:48;13.90;99.90
33139;DHT22;19501;50.948;5.316;2022-08-21T03:39:15;14.10;99.90
33139;DHT22;19501;50.948;5.316;2022-08-21T03:41:41;14.10;99.90
33139;DHT22;19501;50.948;5.316;2022-08-21T03:44:07;14.30;99.90
33139;DHT22;19501;50.948;5.316;2022-08-21T03:46:33;14.30;99.90
33139;DHT22;19501;50.948;5.316;2022-08-21T03:48:59;14.30;99.90
33139;DHT22;19501;50.948;5.316;2022-08-21T03:51:25;14.30;99.90
33139;DHT22;19501;50.948;5.316;2022-08-21T03:53:51;14.20;99.90
33139;DHT22;19501;50.948;5.316;2022-08-21T03:56:17;14.10;99.90
33139;DHT22;19501;50.948;5.316;2022-08-21T03:58:43;13.90;99.90
33139;DHT22;19501;50.948;5.316;2022-08-21T04:01:10;13.70;99.90
33139;DHT22;19501;50.948;5.316;2022-08-21T04:03:37;13.60;99.90
33139;DHT22;19501;50.948;5.316;2022-08-21T04:06:03;13.40;99.90
33139;DHT22;19501;50.948;5.316;2022-08-21T04:08:29;13.40;99.90
33139;DHT22;19501;50.948;5.316;2022-08-21T04:10:57;13.60;99.90
33139;DHT22;19501;50.948;5.316;2022-08-21T04:13:24;13.70;99.90
33139;DHT22;19501;50.948;5.316;2022-08-21T04:15:50;13.80;99.90
33139;DHT22;19501;50.948;5.316;2022-08-21T04:18:16;13.80;99.90
33139;DHT22;19501;50.948;5.316;2022-08-21T04:20:42;13.90;99.90
33139;DHT22;19501;50.948;5.316;2022-08-21T04:23:09;13.70;99.90
33139;DHT22;19501;50.948;5.316;2022-08-21T04:25:34;13.70;99.90
33139;DHT22;19501;50.948;5.316;2022-08-21T04:28:01;13.70;99.90
33139;DHT22;19501;50.948;5.316;2022-08-21T04:30:27;13.90;99.90
33139;DHT22;19501;50.948;5.316;2022-08-21T04:32:53;14.10;99.90
33139;DHT22;19501;50.948;5.316;2022-08-21T04:35:21;14.10;99.90
33139;DHT22;19501;50.948;5.316;2022-08-21T04:37:47;14.00;99.90
33139;DHT22;19501;50.948;5.316;2022-08-21T04:40:14;14.10;99.90
33139;DHT22;19501;50.948;5.316;2022-08-21T04:42:46;14.20;99.90
33139;DHT22;19501;50.948;5.316;2022-08-21T04:45:26;14.20;99.90
33139;DHT22;19501;50.948;5.316;2022-08-21T04:47:55;14.20;99.90
33139;DHT22;19501;50.948;5.316;2022-08-21T04:53:24;14.00;99.90
33139;DHT22;19501;50.948;5.316;2022-08-21T04:55:52;13.80;99.90
33139;DHT22;19501;50.948;5.316;2022-08-21T04:58:20;13.70;99.90
33139;DHT22;19501;50.948;5.316;2022-08-21T05:00:48;13.80;99.90
33139;DHT22;19501;50.948;5.316;2022-08-21T05:03:14;13.80;99.90
33139;DHT22;19501;50.948;5.316;2022-08-21T05:05:41;13.80;99.90
33139;DHT22;19501;50.948;5.316;2022-08-21T05:08:09;13.90;99.90
33139;DHT22;19501;50.948;5.316;2022-08-21T05:10:37;14.10;99.90
33139;DHT22;19501;50.948;5.316;2022-08-21T05:13:03;14.00;99.90
33139;DHT22;19501;50.948;5.316;2022-08-21T05:15:30;14.10;99.90
33139;DHT22;19501;50.948;5.316;2022-08-21T05:17:57;14.10;99.90
33139;DHT22;19501;50.948;5.316;2022-08-21T05:20:22;14.20;99.90
33139;DHT22;19501;50.948;5.316;2022-08-21T05:22:48;14.30;99.90
33139;DHT22;19501;50.948;5.316;2022-08-21T05:25:16;14.20;99.90
33139;DHT22;19501;50.948;5.316;2022-08-21T05:27:42;14.30;99.90
33139;DHT22;19501;50.948;5.316;2022-08-21T05:30:09;14.40;99.90
33139;DHT22;19501;50.948;5.316;2022-08-21T05:32:38;14.50;99.90
33139;DHT22;19501;50.948;5.316;2022-08-21T05:35:06;14.50;99.90
33139;DHT22;19501;50.948;5.316;2022-08-21T05:37:33;14.50;99.90
33139;DHT22;19501;50.948;5.316;2022-08-21T05:40:00;14.50;99.90
33139;DHT22;19501;50.948;5.316;2022-08-21T05:42:25;14.60;99.90
33139;DHT22;19501;50.948;5.316;2022-08-21T05:44:51;14.70;99.90
33139;DHT22;19501;50.948;5.316;2022-08-21T05:47:17;14.80;99.90
33139;DHT22;19501;50.948;5.316;2022-08-21T05:49:45;14.90;99.90
33139;DHT22;19501;50.948;5.316;2022-08-21T05:52:10;14.90;99.90
33139;DHT22;19501;50.948;5.316;2022-08-21T05:54:37;15.10;99.90
33139;DHT22;19501;50.948;5.316;2022-08-21T05:57:03;15.20;99.90
33139;DHT22;19501;50.948;5.316;2022-08-21T05:59:28;15.30;99.90
33139;DHT22;19501;50.948;5.316;2022-08-21T06:01:54;15.30;99.90
33139;DHT22;19501;50.948;5.316;2022-08-21T06:04:20;15.40;99.90
33139;DHT22;19501;50.948;5.316;2022-08-21T06:06:46;15.40;99.90
33139;DHT22;19501;50.948;5.316;2022-08-21T06:09:12;15.40;99.90
33139;DHT22;19501;50.948;5.316;2022-08-21T06:11:38;15.40;99.90
33139;DHT22;19501;50.948;5.316;2022-08-21T06:14:04;15.50;99.90
33139;DHT22;19501;50.948;5.316;2022-08-21T06:16:31;15.60;99.90
33139;DHT22;19501;50.948;5.316;2022-08-21T06:18:57;15.70;99.90
33139;DHT22;19501;50.948;5.316;2022-08-21T06:21:23;15.80;99.90
33139;DHT22;19501;50.948;5.316;2022-08-21T06:23:49;15.90;99.90
33139;DHT22;19501;50.948;5.316;2022-08-21T06:26:14;15.90;99.90
33139;DHT22;19501;50.948;5.316;2022-08-21T06:28:41;16.20;99.90
33139;DHT22;19501;50.948;5.316;2022-08-21T06:31:15;16.20;99.90
33139;DHT22;19501;50.948;5.316;2022-08-21T06:33:41;16.40;99.90
33139;DHT22;19501;50.948;5.316;2022-08-21T06:36:07;16.50;99.90
33139;DHT22;19501;50.948;5.316;2022-08-21T06:38:36;16.30;99.90
33139;DHT22;19501;50.948;5.316;2022-08-21T06:41:02;16.30;99.90
33139;DHT22;19501;50.948;5.316;2022-08-21T06:43:27;16.30;99.90
33139;DHT22;19501;50.948;5.316;2022-08-21T06:45:53;16.50;99.90
33139;DHT22;19501;50.948;5.316;2022-08-21T06:48:19;16.60;99.90
33139;DHT22;19501;50.948;5.316;2022-08-21T06:50:46;16.60;99.90
33139;DHT22;19501;50.948;5.316;2022-08-21T06:53:14;16.60;99.90
33139;DHT22;19501;50.948;5.316;2022-08-21T06:55:41;16.80;99.90
33139;DHT22;19501;50.948;5.316;2022-08-21T06:58:09;16.80;99.90
33139;DHT22;19501;50.948;5.316;2022-08-21T07:00:38;17.00;99.90
33139;DHT22;19501;50.948;5.316;2022-08-21T07:03:04;17.10;99.90
33139;DHT22;19501;50.948;5.316;2022-08-21T07:05:30;17.20;99.90
33139;DHT22;19501;50.948;5.316;2022-08-21T07:07:56;17.40;99.90
33139;DHT22;19501;50.948;5.316;2022-08-21T07:10:23;17.50;99.90
33139;DHT22;19501;50.948;5.316;2022-08-21T07:12:50;17.70;99.90
33139;DHT22;19501;50.948;5.316;2022-08-21T07:15:15;17.90;99.90
33139;DHT22;19501;50.948;5.316;2022-08-21T07:17:41;18.10;99.90
33139;DHT22;19501;50.948;5.316;2022-08-21T07:20:08;18.20;99.90
33139;DHT22;19501;50.948;5.316;2022-08-21T07:22:36;18.20;99.90
33139;DHT22;19501;50.948;5.316;2022-08-21T07:25:04;18.30;99.90
33139;DHT22;19501;50.948;5.316;2022-08-21T07:27:30;18.40;99.90
33139;DHT22;19501;50.948;5.316;2022-08-21T07:29:57;18.40;99.90
33139;DHT22;19501;50.948;5.316;2022-08-21T07:32:23;18.40;99.90
33139;DHT22;19501;50.948;5.316;2022-08-21T07:34:49;18.60;99.90
33139;DHT22;19501;50.948;5.316;2022-08-21T07:37:14;18.50;99.90
33139;DHT22;19501;50.948;5.316;2022-08-21T07:39:40;18.60;99.90
33139;DHT22;19501;50.948;5.316;2022-08-21T07:42:06;18.70;99.90
33139;DHT22;19501;50.948;5.316;2022-08-21T07:44:32;18.50;99.90
33139;DHT22;19501;50.948;5.316;2022-08-21T07:47:00;18.30;99.90
33139;DHT22;19501;50.948;5.316;2022-08-21T07:49:26;18.40;99.90
33139;DHT22;19501;50.948;5.316;2022-08-21T07:51:52;18.60;99.90
33139;DHT22;19501;50.948;5.316;2022-08-21T07:54:18;18.60;99.90
33139;DHT22;19501;50.948;5.316;2022-08-21T07:56:43;18.70;99.90
33139;DHT22;19501;50.948;5.316;2022-08-21T07:59:09;19.00;99.90
33139;DHT22;19501;50.948;5.316;2022-08-21T08:01:34;19.10;99.90
33139;DHT22;19501;50.948;5.316;2022-08-21T08:04:00;19.20;99.90
33139;DHT22;19501;50.948;5.316;2022-08-21T08:06:26;19.40;99.90
33139;DHT22;19501;50.948;5.316;2022-08-21T08:08:51;19.60;99.90
33139;DHT22;19501;50.948;5.316;2022-08-21T08:11:18;19.80;99.90
33139;DHT22;19501;50.948;5.316;2022-08-21T08:13:47;19.90;99.90
33139;DHT22;19501;50.948;5.316;2022-08-21T08:16:13;19.80;99.90
33139;DHT22;19501;50.948;5.316;2022-08-21T08:18:39;19.80;99.90
33139;DHT22;19501;50.948;5.316;2022-08-21T08:21:05;20.00;99.90
33139;DHT22;19501;50.948;5.316;2022-08-21T08:23:32;20.00;99.90
33139;DHT22;19501;50.948;5.316;2022-08-21T08:25:58;19.90;99.90
33139;DHT22;19501;50.948;5.316;2022-08-21T08:28:24;20.00;99.90
33139;DHT22;19501;50.948;5.316;2022-08-21T08:30:50;20.00;99.90
33139;DHT22;19501;50.948;5.316;2022-08-21T08:33:17;19.80;99.90
33139;DHT22;19501;50.948;5.316;2022-08-21T08:35:46;19.90;99.90
33139;DHT22;19501;50.948;5.316;2022-08-21T08:38:13;19.90;99.90
33139;DHT22;19501;50.948;5.316;2022-08-21T08:40:55;20.20;99.90
33139;DHT22;19501;50.948;5.316;2022-08-21T08:43:25;20.20;99.90
33139;DHT22;19501;50.948;5.316;2022-08-21T08:45:53;20.20;99.90
33139;DHT22;19501;50.948;5.316;2022-08-21T08:51:02;20.30;99.90
33139;DHT22;19501;50.948;5.316;2022-08-21T08:53:45;20.60;99.90
33139;DHT22;19501;50.948;5.316;2022-08-21T08:56:13;20.80;99.90
33139;DHT22;19501;50.948;5.316;2022-08-21T08:58:42;21.00;99.90
33139;DHT22;19501;50.948;5.316;2022-08-21T09:01:16;21.20;99.90
33139;DHT22;19501;50.948;5.316;2022-08-21T09:03:44;21.10;99.90
33139;DHT22;19501;50.948;5.316;2022-08-21T09:09:31;21.50;99.90
33139;DHT22;19501;50.948;5.316;2022-08-21T09:12:55;21.30;99.90
33139;DHT22;19501;50.948;5.316;2022-08-21T09:15:11;21.20;99.90
33139;DHT22;19501;50.948;5.316;2022-08-21T09:20:55;21.00;99.90
33139;DHT22;19501;50.948;5.316;2022-08-21T09:28:36;21.30;99.90
33139;DHT22;19501;50.948;5.316;2022-08-21T09:31:16;21.40;99.90
33139;DHT22;19501;50.948;5.316;2022-08-21T09:33:44;21.70;99.90
33139;DHT22;19501;50.948;5.316;2022-08-21T09:36:10;22.00;99.90
33139;DHT22;19501;50.948;5.316;2022-08-21T09:38:36;21.80;99.90
33139;DHT22;19501;50.948;5.316;2022-08-21T09:41:08;21.90;99.90
33139;DHT22;19501;50.948;5.316;2022-08-21T09:43:36;21.90;99.90
33139;DHT22;19501;50.948;5.316;2022-08-21T09:48:29;22.00;99.90
33139;DHT22;19501;50.948;5.316;2022-08-21T09:51:06;22.10;99.90
33139;DHT22;19501;50.948;5.316;2022-08-21T09:53:32;22.30;99.90
33139;DHT22;19501;50.948;5.316;2022-08-21T09:56:16;22.40;99.90
33139;DHT22;19501;50.948;5.316;2022-08-21T09:59:14;22.40;99.90
33139;DHT22;19501;50.948;5.316;2022-08-21T10:01:49;22.40;99.90
33139;DHT22;19501;50.948;5.316;2022-08-21T10:04:21;22.30;99.90
33139;DHT22;19501;50.948;5.316;2022-08-21T10:06:48;22.50;99.90
33139;DHT22;19501;50.948;5.316;2022-08-21T10:09:17;22.50;99.90
33139;DHT22;19501;50.948;5.316;2022-08-21T10:11:53;22.60;99.90
33139;DHT22;19501;50.948;5.316;2022-08-21T10:20:04;23.10;99.90
33139;DHT22;19501;50.948;5.316;2022-08-21T10:22:56;23.30;99.90
33139;DHT22;19501;50.948;5.316;2022-08-21T10:25:37;23.10;99.90
33139;DHT22;19501;50.948;5.316;2022-08-21T10:28:18;23.40;99.90
33139;DHT22;19501;50.948;5.316;2022-08-21T10:36:51;23.70;99.90
33139;DHT22;19501;50.948;5.316;2022-08-21T10:39:25;23.70;99.90
33139;DHT22;19501;50.948;5.316;2022-08-21T10:42:35;23.40;99.90
33139;DHT22;19501;50.948;5.316;2022-08-21T10:47:46;23.70;99.90
33139;DHT22;19501;50.948;5.316;2022-08-21T10:50:39;23.70;99.90
33139;DHT22;19501;50.948;5.316;2022-08-21T10:53:14;23.90;99.90
33139;DHT22;19501;50.948;5.316;2022-08-21T10:55:50;23.80;99.90
33139;DHT22;19501;50.948;5.316;2022-08-21T10:58:29;23.60;99.90
33139;DHT22;19501;50.948;5.316;2022-08-21T11:01:01;23.60;99.90
33139;DHT22;19501;50.948;5.316;2022-08-21T11:03:39;24.00;99.90
33139;DHT22;19501;50.948;5.316;2022-08-21T11:06:26;24.60;99.80
33139;DHT22;19501;50.948;5.316;2022-08-21T11:08:58;24.30;99.40
33139;DHT22;19501;50.948;5.316;2022-08-21T11:11:49;24.40;99.10
33139;DHT22;19501;50.948;5.316;2022-08-21T11:14:20;24.70;98.70
33139;DHT22;19501;50.948;5.316;2022-08-21T11:16:56;25.80;97.90
33139;DHT22;19501;50.948;5.316;2022-08-21T11:19:35;26.40;96.20
33139;DHT22;19501;50.948;5.316;2022-08-21T11:22:21;26.40;95.70
33139;DHT22;19501;50.948;5.316;2022-08-21T11:25:14;26.40;95.90
33139;DHT22;19501;50.948;5.316;2022-08-21T11:27:50;26.50;94.40
33139;DHT22;19501;50.948;5.316;2022-08-21T11:30:18;26.00;95.40
33139;DHT22;19501;50.948;5.316;2022-08-21T11:38:35;27.00;93.20
33139;DHT22;19501;50.948;5.316;2022-08-21T11:51:44;26.70;92.10
33139;DHT22;19501;50.948;5.316;2022-08-21T11:54:24;26.40;92.80
33139;DHT22;19501;50.948;5.316;2022-08-21T11:57:02;26.60;92.60
33139;DHT22;19501;50.948;5.316;2022-08-21T11:59:39;25.80;92.80
33139;DHT22;19501;50.948;5.316;2022-08-21T12:02:20;25.50;93.20
33139;DHT22;19501;50.948;5.316;2022-08-21T12:04:51;25.20;93.50
33139;DHT22;19501;50.948;5.316;2022-08-21T12:10:06;24.70;94.30
33139;DHT22;19501;50.948;5.316;2022-08-21T12:12:35;25.20;94.80
33139;DHT22;19501;50.948;5.316;2022-08-21T12:17:58;27.40;91.70
33139;DHT22;19501;50.948;5.316;2022-08-21T12:25:40;27.50;91.10
33139;DHT22;19501;50.948;5.316;2022-08-21T12:28:09;27.80;90.20
33139;DHT22;19501;50.948;5.316;2022-08-21T12:30:39;27.70;90.00
33139;DHT22;19501;50.948;5.316;2022-08-21T12:35:47;26.80;90.70
33139;DHT22;19501;50.948;5.316;2022-08-21T12:40:47;26.80;91.30
33139;DHT22;19501;50.948;5.316;2022-08-21T12:43:19;27.20;91.20
33139;DHT22;19501;50.948;5.316;2022-08-21T12:45:48;27.00;90.40
33139;DHT22;19501;50.948;5.316;2022-08-21T12:48:22;26.50;90.50
33139;DHT22;19501;50.948;5.316;2022-08-21T12:50:53;26.30;90.50
33139;DHT22;19501;50.948;5.316;2022-08-21T12:53:41;25.80;90.90
33139;DHT22;19501;50.948;5.316;2022-08-21T12:56:11;25.80;90.70
33139;DHT22;19501;50.948;5.316;2022-08-21T12:58:47;27.30;90.30
33139;DHT22;19501;50.948;5.316;2022-08-21T13:01:27;28.10;88.40
33139;DHT22;19501;50.948;5.316;2022-08-21T13:03:56;28.10;88.20
33139;DHT22;19501;50.948;5.316;2022-08-21T13:06:28;28.60;86.20
33139;DHT22;19501;50.948;5.316;2022-08-21T13:08:58;28.30;85.70
33139;DHT22;19501;50.948;5.316;2022-08-21T13:11:28;27.90;87.80
33139;DHT22;19501;50.948;5.316;2022-08-21T13:13:54;27.30;85.10
33139;DHT22;19501;50.948;5.316;2022-08-21T13:16:28;27.40;87.50
33139;DHT22;19501;50.948;5.316;2022-08-21T13:19:00;27.00;85.80
33139;DHT22;19501;50.948;5.316;2022-08-21T13:21:40;26.80;86.20
33139;DHT22;19501;50.948;5.316;2022-08-21T13:26:41;28.20;84.50
33139;DHT22;19501;50.948;5.316;2022-08-21T13:29:12;27.40;87.60
33139;DHT22;19501;50.948;5.316;2022-08-21T13:31:39;27.10;88.00
33139;DHT22;19501;50.948;5.316;2022-08-21T13:34:09;27.60;88.20
33139;DHT22;19501;50.948;5.316;2022-08-21T13:36:39;27.40;86.70
33139;DHT22;19501;50.948;5.316;2022-08-21T13:39:11;26.60;88.30
33139;DHT22;19501;50.948;5.316;2022-08-21T13:41:40;26.90;87.50
33139;DHT22;19501;50.948;5.316;2022-08-21T13:44:16;26.90;88.20
33139;DHT22;19501;50.948;5.316;2022-08-21T13:46:43;27.00;87.30
33139;DHT22;19501;50.948;5.316;2022-08-21T13:49:10;27.00;87.50
33139;DHT22;19501;50.948;5.316;2022-08-21T13:51:39;26.90;88.30
33139;DHT22;19501;50.948;5.316;2022-08-21T13:54:16;26.70;85.90
33139;DHT22;19501;50.948;5.316;2022-08-21T13:56:46;26.40;87.20
33139;DHT22;19501;50.948;5.316;2022-08-21T13:59:27;26.10;86.70
33139;DHT22;19501;50.948;5.316;2022-08-21T14:01:55;26.20;90.00
33139;DHT22;19501;50.948;5.316;2022-08-21T14:04:33;26.00;88.60
33139;DHT22;19501;50.948;5.316;2022-08-21T14:07:00;26.10;87.30
33139;DHT22;19501;50.948;5.316;2022-08-21T14:09:35;26.30;85.80
33139;DHT22;19501;50.948;5.316;2022-08-21T14:12:14;26.10;86.70
33139;DHT22;19501;50.948;5.316;2022-08-21T14:14:40;25.90;87.60
33139;DHT22;19501;50.948;5.316;2022-08-21T14:17:10;25.50;88.20
33139;DHT22;19501;50.948;5.316;2022-08-21T14:19:41;25.50;90.00
33139;DHT22;19501;50.948;5.316;2022-08-21T14:24:48;26.20;87.20
33139;DHT22;19501;50.948;5.316;2022-08-21T14:27:18;26.50;86.60
33139;DHT22;19501;50.948;5.316;2022-08-21T14:29:44;26.30;86.00
33139;DHT22;19501;50.948;5.316;2022-08-21T14:32:20;26.30;86.30
33139;DHT22;19501;50.948;5.316;2022-08-21T14:34:50;26.00;87.40
33139;DHT22;19501;50.948;5.316;2022-08-21T14:37:15;26.30;88.20
33139;DHT22;19501;50.948;5.316;2022-08-21T14:39:41;26.60;87.40
33139;DHT22;19501;50.948;5.316;2022-08-21T14:42:07;26.60;86.20
33139;DHT22;19501;50.948;5.316;2022-08-21T14:44:33;26.50;85.90
33139;DHT22;19501;50.948;5.316;2022-08-21T14:46:59;26.60;86.70
33139;DHT22;19501;50.948;5.316;2022-08-21T14:49:26;26.50;87.60
33139;DHT22;19501;50.948;5.316;2022-08-21T14:51:54;26.90;86.60
33139;DHT22;19501;50.948;5.316;2022-08-21T14:54:24;26.90;87.00
33139;DHT22;19501;50.948;5.316;2022-08-21T14:56:50;26.90;86.90
33139;DHT22;19501;50.948;5.316;2022-08-21T14:59:16;26.90;86.40
33139;DHT22;19501;50.948;5.316;2022-08-21T15:01:42;27.00;85.30
33139;DHT22;19501;50.948;5.316;2022-08-21T15:04:08;26.50;85.70
33139;DHT22;19501;50.948;5.316;2022-08-21T15:06:34;26.10;88.50
33139;DHT22;19501;50.948;5.316;2022-08-21T15:09:00;26.20;88.60
33139;DHT22;19501;50.948;5.316;2022-08-21T15:11:28;26.10;89.20
33139;DHT22;19501;50.948;5.316;2022-08-21T15:13:56;25.90;88.60
33139;DHT22;19501;50.948;5.316;2022-08-21T15:16:27;25.70;90.20
33139;DHT22;19501;50.948;5.316;2022-08-21T15:18:53;25.70;88.20
33139;DHT22;19501;50.948;5.316;2022-08-21T15:21:19;25.70;88.50
33139;DHT22;19501;50.948;5.316;2022-08-21T15:23:44;25.80;90.30
33139;DHT22;19501;50.948;5.316;2022-08-21T15:26:10;26.00;89.60
33139;DHT22;19501;50.948;5.316;2022-08-21T15:28:37;26.00;88.80
33139;DHT22;19501;50.948;5.316;2022-08-21T15:31:04;26.20;88.00
33139;DHT22;19501;50.948;5.316;2022-08-21T15:33:30;26.40;88.60
33139;DHT22;19501;50.948;5.316;2022-08-21T15:35:56;26.50;86.40
33139;DHT22;19501;50.948;5.316;2022-08-21T15:38:21;26.50;88.00
33139;DHT22;19501;50.948;5.316;2022-08-21T15:40:47;26.40;88.30
33139;DHT22;19501;50.948;5.316;2022-08-21T15:43:23;26.50;87.00
33139;DHT22;19501;50.948;5.316;2022-08-21T15:45:51;26.10;86.30
33139;DHT22;19501;50.948;5.316;2022-08-21T15:48:17;26.10;88.00
33139;DHT22;19501;50.948;5.316;2022-08-21T15:50:43;26.40;87.80
33139;DHT22;19501;50.948;5.316;2022-08-21T15:53:08;26.20;87.20
33139;DHT22;19501;50.948;5.316;2022-08-21T15:55:34;26.10;88.00
33139;DHT22;19501;50.948;5.316;2022-08-21T15:58:00;26.00;89.20
33139;DHT22;19501;50.948;5.316;2022-08-21T16:00:26;25.70;87.90
33139;DHT22;19501;50.948;5.316;2022-08-21T16:02:55;25.90;88.50
33139;DHT22;19501;50.948;5.316;2022-08-21T16:05:23;26.00;87.80
33139;DHT22;19501;50.948;5.316;2022-08-21T16:07:50;25.80;87.10
33139;DHT22;19501;50.948;5.316;2022-08-21T16:10:18;25.60;88.00
33139;DHT22;19501;50.948;5.316;2022-08-21T16:12:48;25.60;88.00
33139;DHT22;19501;50.948;5.316;2022-08-21T16:15:16;25.80;88.30
33139;DHT22;19501;50.948;5.316;2022-08-21T16:17:44;25.50;89.50
33139;DHT22;19501;50.948;5.316;2022-08-21T16:20:15;25.40;89.20
33139;DHT22;19501;50.948;5.316;2022-08-21T16:22:41;25.30;88.60
33139;DHT22;19501;50.948;5.316;2022-08-21T16:25:07;25.30;90.00
33139;DHT22;19501;50.948;5.316;2022-08-21T16:27:34;25.30;89.50
33139;DHT22;19501;50.948;5.316;2022-08-21T16:30:01;25.30;89.10
33139;DHT22;19501;50.948;5.316;2022-08-21T16:32:28;25.00;89.20
33139;DHT22;19501;50.948;5.316;2022-08-21T16:34:56;25.00;90.20
33139;DHT22;19501;50.948;5.316;2022-08-21T16:37:22;24.80;90.30
33139;DHT22;19501;50.948;5.316;2022-08-21T16:39:50;24.90;90.30
33139;DHT22;19501;50.948;5.316;2022-08-21T16:42:19;25.10;90.70
33139;DHT22;19501;50.948;5.316;2022-08-21T16:44:46;25.00;91.00
33139;DHT22;19501;50.948;5.316;2022-08-21T16:47:12;25.10;90.20
33139;DHT22;19501;50.948;5.316;2022-08-21T16:49:37;24.90;90.50
33139;DHT22;19501;50.948;5.316;2022-08-21T16:52:04;25.00;90.60
33139;DHT22;19501;50.948;5.316;2022-08-21T16:54:30;25.00;90.40